createdAt,value
2022-09-09T00:02:22.056Z,9.25
2022-09-09T00:08:05.363Z,9.07
2022-09-09T00:10:43.131Z,9.20
2022-09-09T00:13:35.211Z,10.35
2022-09-09T00:16:08.814Z,10.27
2022-09-09T00:19:00.560Z,10.40
2022-09-09T00:21:37.220Z,9.40
2022-09-09T00:24:32.848Z,10.95
2022-09-09T00:27:08.172Z,10.27
2022-09-09T00:29:43.937Z,10.10
2022-09-09T00:32:17.610Z,10.93
2022-09-09T00:35:02.966Z,9.90
2022-09-09T00:37:33.160Z,10.95
2022-09-09T00:40:04.180Z,10.10
2022-09-09T00:42:43.622Z,10.45
2022-09-09T00:45:17.035Z,10.68
2022-09-09T00:48:08.580Z,11.52
2022-09-09T00:50:47.498Z,11.23
2022-09-09T00:53:31.276Z,10.90
2022-09-09T00:56:07.046Z,9.88
2022-09-09T00:58:34.229Z,11.15
2022-09-09T01:01:13.075Z,10.43
2022-09-09T01:06:40.542Z,10.52
2022-09-09T01:09:23.796Z,11.93
2022-09-09T01:11:53.480Z,10.73
2022-09-09T01:14:33.463Z,11.10
2022-09-09T01:17:06.630Z,10.80
2022-09-09T01:19:45.202Z,11.57
2022-09-09T01:22:27.470Z,11.65
2022-09-09T01:25:31.749Z,11.30
2022-09-09T01:28:09.307Z,11.68
2022-09-09T01:30:37.448Z,11.73
2022-09-09T01:33:05.463Z,11.55
2022-09-09T01:35:55.598Z,12.43
2022-09-09T01:38:24.824Z,11.52
2022-09-09T01:40:53.361Z,11.73
2022-09-09T01:43:22.539Z,10.85
2022-09-09T01:45:53.329Z,10.32
2022-09-09T01:48:20.415Z,10.43
2022-09-09T01:50:47.340Z,11.32
2022-09-09T01:53:16.999Z,11.75
2022-09-09T01:55:54.678Z,12.20
2022-09-09T01:58:40.168Z,13.60
2022-09-09T02:01:25.975Z,11.77
2022-09-09T02:03:57.010Z,12.10
2022-09-09T02:06:34.127Z,12.70
2022-09-09T02:09:05.247Z,11.85
2022-09-09T02:11:33.223Z,12.10
2022-09-09T02:14:17.449Z,11.85
2022-09-09T02:16:52.146Z,12.95
2022-09-09T02:19:26.906Z,13.10
2022-09-09T02:21:56.506Z,12.68
2022-09-09T02:24:23.971Z,12.73
2022-09-09T02:26:56.590Z,12.40
2022-09-09T02:29:31.035Z,12.82
2022-09-09T02:32:04.115Z,13.57
2022-09-09T02:34:37.204Z,12.85
2022-09-09T02:37:05.475Z,11.85
2022-09-09T02:39:32.181Z,14.07
2022-09-09T02:41:59.049Z,11.57
2022-09-09T02:44:25.740Z,12.55
2022-09-09T02:47:10.627Z,12.93
2022-09-09T02:50:07.514Z,12.80
2022-09-09T02:53:06.804Z,12.90
2022-09-09T02:55:41.843Z,12.60
2022-09-09T02:58:13.009Z,16.35
2022-09-09T03:00:41.492Z,14.07
2022-09-09T03:03:10.022Z,13.38
2022-09-09T03:05:37.099Z,15.13
2022-09-09T03:08:06.457Z,15.18
2022-09-09T03:10:34.319Z,14.18
2022-09-09T03:13:01.136Z,12.35
2022-09-09T03:15:31.302Z,14.63
2022-09-09T03:17:58.523Z,12.55
2022-09-09T03:20:27.181Z,13.23
2022-09-09T03:22:54.539Z,12.88
2022-09-09T03:25:21.904Z,12.95
2022-09-09T03:27:48.722Z,12.95
2022-09-09T03:30:16.648Z,13.98
2022-09-09T03:32:47.078Z,15.45
2022-09-09T03:35:16.949Z,20.38
2022-09-09T03:37:44.151Z,14.07
2022-09-09T03:40:11.929Z,16.77
2022-09-09T03:42:39.377Z,17.05
2022-09-09T03:45:07.871Z,16.38
2022-09-09T03:47:34.541Z,16.65
2022-09-09T03:50:01.306Z,16.75
2022-09-09T03:52:28.156Z,14.93
2022-09-09T03:54:55.172Z,17.38
2022-09-09T03:57:22.658Z,14.52
2022-09-09T03:59:49.356Z,14.20
2022-09-09T04:02:16.692Z,17.00
2022-09-09T04:04:43.666Z,14.48
2022-09-09T04:07:10.398Z,16.55
2022-09-09T04:09:37.006Z,21.48
2022-09-09T04:12:03.800Z,13.80
2022-09-09T04:14:30.844Z,12.88
2022-09-09T04:16:58.335Z,15.15
2022-09-09T04:19:25.162Z,17.25
2022-09-09T04:21:52.709Z,13.27
2022-09-09T04:24:20.039Z,11.73
2022-09-09T04:26:46.687Z,10.43
2022-09-09T04:29:13.332Z,11.32
2022-09-09T04:31:43.007Z,11.02
2022-09-09T04:34:10.454Z,12.57
2022-09-09T04:36:37.363Z,16.40
2022-09-09T04:39:04.578Z,12.52
2022-09-09T04:41:32.462Z,9.25
2022-09-09T04:43:59.966Z,11.43
2022-09-09T04:46:27.885Z,15.50
2022-09-09T04:48:54.864Z,14.18
2022-09-09T04:51:21.579Z,16.02
2022-09-09T04:53:48.665Z,19.13
2022-09-09T04:56:17.431Z,18.63
2022-09-09T04:58:44.649Z,11.23
2022-09-09T05:01:19.190Z,16.05
2022-09-09T05:03:47.246Z,22.92
2022-09-09T05:06:16.945Z,13.88
2022-09-09T05:08:44.895Z,13.40
2022-09-09T05:11:19.885Z,11.45
2022-09-09T05:13:47.267Z,12.27
2022-09-09T05:16:15.553Z,9.45
2022-09-09T05:18:44.077Z,7.35
2022-09-09T05:21:11.921Z,9.80
2022-09-09T05:23:39.196Z,9.00
2022-09-09T05:26:06.931Z,8.50
2022-09-09T05:28:35.878Z,7.68
2022-09-09T05:31:06.559Z,8.55
2022-09-09T05:33:34.358Z,9.90
2022-09-09T05:36:03.972Z,8.48
2022-09-09T05:38:31.447Z,11.98
2022-09-09T05:40:58.348Z,8.43
2022-09-09T05:43:26.187Z,12.63
2022-09-09T05:46:11.419Z,18.00
2022-09-09T05:48:41.165Z,10.82
2022-09-09T05:51:11.022Z,18.08
2022-09-09T05:53:38.459Z,17.35
2022-09-09T05:56:05.173Z,13.43
2022-09-09T05:58:33.221Z,11.55
2022-09-09T06:01:17.073Z,12.48
2022-09-09T06:03:45.247Z,13.10
2022-09-09T06:06:23.129Z,10.73
2022-09-09T06:08:53.147Z,10.25
2022-09-09T06:11:25.359Z,9.07
2022-09-09T06:13:54.738Z,8.30
2022-09-09T06:16:27.648Z,8.88
2022-09-09T06:18:58.904Z,14.85
2022-09-09T06:21:34.444Z,11.10
2022-09-09T06:24:02.080Z,8.75
2022-09-09T06:26:33.911Z,10.73
2022-09-09T06:29:01.599Z,10.32
2022-09-09T06:31:35.741Z,10.02
2022-09-09T06:34:03.247Z,10.57
2022-09-09T06:36:32.245Z,8.85
2022-09-09T06:39:00.286Z,8.20
2022-09-09T06:41:29.741Z,8.77
2022-09-09T06:43:59.151Z,10.30
2022-09-09T06:46:29.150Z,7.75
2022-09-09T06:48:58.226Z,11.93
2022-09-09T06:51:26.978Z,11.15
2022-09-09T06:53:55.767Z,9.65
2022-09-09T06:56:29.840Z,6.88
2022-09-09T06:58:59.590Z,7.18
2022-09-09T07:01:31.686Z,12.30
2022-09-09T07:04:00.263Z,10.48
2022-09-09T07:06:33.466Z,6.47
2022-09-09T07:09:09.928Z,14.52
2022-09-09T07:11:45.715Z,6.68
2022-09-09T07:14:15.733Z,6.50
2022-09-09T07:16:43.863Z,7.40
2022-09-09T07:19:12.374Z,8.93
2022-09-09T07:21:40.746Z,8.18
2022-09-09T07:24:11.143Z,9.50
2022-09-09T07:26:39.490Z,9.68
2022-09-09T07:29:06.215Z,6.20
2022-09-09T07:31:36.068Z,7.07
2022-09-09T07:34:03.962Z,8.05
2022-09-09T07:36:33.791Z,4.47
2022-09-09T07:39:10.187Z,5.47
2022-09-09T07:41:40.773Z,6.38
2022-09-09T07:44:10.043Z,6.28
2022-09-09T07:46:37.735Z,4.13
2022-09-09T07:49:04.785Z,5.53
2022-09-09T07:51:37.301Z,10.60
2022-09-09T07:54:06.829Z,3.97
2022-09-09T07:56:34.133Z,4.88
2022-09-09T07:59:02.258Z,3.83
2022-09-09T08:01:31.228Z,3.97
2022-09-09T08:04:03.123Z,3.60
2022-09-09T08:06:32.654Z,5.00
2022-09-09T08:08:59.682Z,4.13
2022-09-09T08:11:28.437Z,5.38
2022-09-09T08:14:00.229Z,3.05
2022-09-09T08:16:34.327Z,4.32
2022-09-09T08:19:01.044Z,4.32
2022-09-09T08:21:30.274Z,3.60
2022-09-09T08:23:58.515Z,5.40
2022-09-09T08:26:36.737Z,4.22
2022-09-09T08:29:05.276Z,6.35
2022-09-09T08:31:33.265Z,2.92
2022-09-09T08:34:01.140Z,5.40
2022-09-09T08:36:30.049Z,3.33
2022-09-09T08:38:58.615Z,5.93
2022-09-09T08:41:43.238Z,2.88
2022-09-09T08:44:32.353Z,2.90
2022-09-09T08:47:11.165Z,8.05
2022-09-09T08:49:57.143Z,6.53
2022-09-09T08:52:39.262Z,3.53
2022-09-09T08:55:26.899Z,4.93
2022-09-09T08:57:56.916Z,3.97
2022-09-09T09:00:28.534Z,3.80
2022-09-09T09:03:14.579Z,3.65
2022-09-09T09:06:01.382Z,3.40
2022-09-09T09:08:39.378Z,5.72
2022-09-09T09:11:07.048Z,4.75
2022-09-09T09:13:59.596Z,6.95
2022-09-09T09:16:41.096Z,3.88
2022-09-09T09:19:15.987Z,3.58
2022-09-09T09:22:16.412Z,6.65
2022-09-09T09:25:03.325Z,5.40
2022-09-09T09:27:42.793Z,7.53
2022-09-09T09:30:35.975Z,3.78
2022-09-09T09:33:09.949Z,5.55
2022-09-09T09:35:41.604Z,5.18
2022-09-09T09:41:33.745Z,4.65
2022-09-09T09:44:02.351Z,8.93
2022-09-09T09:46:29.752Z,4.03
2022-09-09T09:49:01.069Z,4.75
2022-09-09T09:51:28.967Z,3.88
2022-09-09T09:54:06.777Z,3.55
2022-09-09T09:56:33.642Z,8.35
2022-09-09T09:59:03.669Z,4.88
2022-09-09T10:01:37.005Z,8.57
2022-09-09T10:04:24.653Z,4.82
2022-09-09T10:06:52.187Z,6.43
2022-09-09T10:09:34.674Z,4.10
2022-09-09T10:12:16.607Z,4.70
2022-09-09T10:14:57.098Z,5.10
2022-09-09T10:18:16.099Z,3.45
2022-09-09T10:21:06.902Z,7.65
2022-09-09T10:24:11.220Z,4.05
2022-09-09T10:27:13.923Z,8.85
2022-09-09T10:29:52.547Z,11.23
2022-09-09T10:32:42.851Z,4.20
2022-09-09T10:35:31.587Z,3.83
2022-09-09T10:38:15.795Z,3.92
2022-09-09T10:40:52.693Z,7.35
2022-09-09T10:43:57.422Z,8.38
2022-09-09T10:47:01.817Z,13.18
2022-09-09T10:49:54.583Z,15.20
2022-09-09T10:52:26.155Z,6.32
2022-09-09T10:55:13.996Z,7.22
2022-09-09T10:57:55.501Z,9.48
2022-09-09T11:00:28.480Z,7.63
2022-09-09T11:02:59.723Z,4.70
2022-09-09T11:05:41.579Z,8.60
2022-09-09T11:08:16.650Z,10.00
2022-09-09T11:10:59.812Z,5.00
2022-09-09T11:13:32.962Z,7.70
2022-09-09T11:16:10.475Z,7.85
2022-09-09T11:18:42.287Z,10.57
2022-09-09T11:21:20.632Z,10.15
2022-09-09T11:23:54.943Z,10.25
2022-09-09T11:26:33.090Z,8.38
2022-09-09T11:29:24.546Z,4.95
2022-09-09T11:32:12.829Z,5.82
2022-09-09T11:35:01.829Z,11.27
2022-09-09T11:37:47.469Z,4.35
2022-09-09T11:40:23.704Z,6.82
2022-09-09T11:43:01.349Z,8.75
2022-09-09T11:45:30.664Z,10.25
2022-09-09T11:48:03.245Z,10.75
2022-09-09T11:50:38.480Z,7.10
2022-09-09T11:53:27.877Z,5.13
2022-09-09T11:56:06.865Z,6.32
2022-09-09T11:59:03.114Z,4.65
2022-09-09T12:01:44.496Z,11.07
2022-09-09T12:04:32.383Z,6.68
2022-09-09T12:07:23.115Z,6.53
2022-09-09T12:10:20.828Z,9.38
2022-09-09T12:12:47.811Z,8.80
2022-09-09T12:15:21.084Z,4.97
2022-09-09T12:17:54.680Z,6.13
2022-09-09T12:20:53.447Z,9.88
2022-09-09T12:23:45.382Z,7.03
2022-09-09T12:26:34.092Z,7.05
2022-09-09T12:29:26.183Z,12.48
2022-09-09T12:32:08.460Z,7.07
2022-09-09T12:34:54.548Z,6.00
2022-09-09T12:37:46.464Z,8.25
2022-09-09T12:40:25.345Z,7.65
2022-09-09T12:42:52.519Z,10.82
2022-09-09T12:45:26.260Z,9.25
2022-09-09T12:48:01.640Z,8.88
2022-09-09T12:50:32.832Z,6.25
2022-09-09T12:53:09.028Z,4.72
2022-09-09T12:55:38.920Z,8.80
2022-09-09T12:58:07.593Z,6.78
2022-09-09T13:00:35.714Z,7.25
2022-09-09T13:03:16.012Z,6.63
2022-09-09T13:05:42.878Z,4.00
2022-09-09T13:08:15.028Z,5.55
2022-09-09T13:10:53.645Z,4.25
2022-09-09T13:13:28.456Z,6.90
2022-09-09T13:15:58.977Z,6.25
2022-09-09T13:18:31.988Z,5.70
2022-09-09T13:20:59.395Z,8.95
2022-09-09T13:23:32.150Z,8.43
2022-09-09T13:26:01.783Z,7.53
2022-09-09T13:28:34.115Z,7.45
2022-09-09T13:31:04.491Z,8.57
2022-09-09T13:33:39.301Z,9.45
2022-09-09T13:36:10.301Z,7.38
2022-09-09T13:38:58.393Z,9.60
2022-09-09T13:41:36.385Z,12.15
2022-09-09T13:44:05.150Z,6.45
2022-09-09T13:46:41.401Z,3.85
2022-09-09T13:49:09.875Z,10.15
2022-09-09T13:51:48.367Z,14.10
2022-09-09T13:54:17.308Z,7.50
2022-09-09T13:56:45.324Z,10.02
2022-09-09T13:59:14.874Z,7.82
2022-09-09T14:01:42.636Z,10.95
2022-09-09T14:04:10.141Z,11.60
2022-09-09T14:06:39.595Z,13.52
2022-09-09T14:09:07.513Z,8.82
2022-09-09T14:11:34.371Z,5.20
2022-09-09T14:14:01.979Z,8.40
2022-09-09T14:16:30.416Z,15.05
2022-09-09T14:19:00.267Z,9.48
2022-09-09T14:21:28.232Z,9.20
2022-09-09T14:23:55.662Z,7.32
2022-09-09T14:26:22.868Z,7.63
2022-09-09T14:28:57.172Z,6.38
2022-09-09T14:31:25.244Z,6.63
2022-09-09T14:33:52.141Z,6.57
2022-09-09T14:36:18.847Z,9.43
2022-09-09T14:38:45.592Z,13.70
2022-09-09T14:41:24.463Z,7.00
2022-09-09T14:43:51.403Z,7.47
2022-09-09T14:46:19.720Z,8.13
2022-09-09T14:48:46.525Z,8.38
2022-09-09T14:51:20.623Z,6.50
2022-09-09T14:53:47.949Z,10.25
2022-09-09T14:56:23.136Z,6.93
2022-09-09T14:58:50.700Z,9.05
2022-09-09T15:01:19.580Z,6.07
2022-09-09T15:03:54.751Z,5.75
2022-09-09T15:06:22.938Z,6.55
2022-09-09T15:08:52.197Z,11.60
2022-09-09T15:11:19.499Z,8.38
2022-09-09T15:13:46.096Z,12.93
2022-09-09T15:16:18.360Z,7.43
2022-09-09T15:18:46.683Z,7.50
2022-09-09T15:21:16.536Z,11.23
2022-09-09T15:23:44.022Z,13.35
2022-09-09T15:26:11.317Z,13.35
2022-09-09T15:28:39.141Z,14.80
2022-09-09T15:31:08.722Z,7.90
2022-09-09T15:33:37.813Z,8.57
2022-09-09T15:36:21.920Z,10.38
2022-09-09T15:38:49.087Z,6.30
2022-09-09T15:41:16.739Z,9.70
2022-09-09T15:43:50.159Z,18.40
2022-09-09T15:46:27.415Z,7.45
2022-09-09T15:48:56.916Z,11.65
2022-09-09T15:51:41.802Z,9.10
2022-09-09T15:54:13.527Z,14.18
2022-09-09T15:56:40.997Z,10.40
2022-09-09T15:59:07.724Z,6.68
2022-09-09T16:01:35.290Z,9.60
2022-09-09T16:04:02.288Z,7.68
2022-09-09T16:06:30.761Z,16.38
2022-09-09T16:08:59.138Z,8.80
2022-09-09T16:11:28.535Z,13.90
2022-09-09T16:13:56.620Z,5.13
2022-09-09T16:16:26.297Z,11.13
2022-09-09T16:18:59.394Z,11.32
2022-09-09T16:21:31.376Z,15.43
2022-09-09T16:24:01.035Z,12.65
2022-09-09T16:26:29.265Z,13.68
2022-09-09T16:28:55.869Z,11.50
2022-09-09T16:31:27.872Z,16.10
2022-09-09T16:33:54.810Z,18.60
2022-09-09T16:36:27.367Z,16.50
2022-09-09T16:38:59.176Z,11.45
2022-09-09T16:41:28.829Z,15.98
2022-09-09T16:43:56.526Z,13.45
2022-09-09T16:46:23.810Z,17.33
2022-09-09T16:48:51.435Z,13.90
2022-09-09T16:51:21.076Z,16.30
2022-09-09T16:53:48.982Z,11.32
2022-09-09T16:56:26.668Z,21.00
2022-09-09T16:58:58.535Z,16.65
2022-09-09T17:01:27.280Z,21.33
2022-09-09T17:04:01.132Z,17.13
2022-09-09T17:06:30.362Z,26.05
2022-09-09T17:09:00.884Z,20.40
2022-09-09T17:11:27.674Z,21.80
2022-09-09T17:13:55.692Z,21.65
2022-09-09T17:16:24.668Z,17.40
2022-09-09T17:18:52.512Z,14.48
2022-09-09T17:21:22.046Z,23.02
2022-09-09T17:23:49.248Z,18.17
2022-09-09T17:26:19.043Z,19.65
2022-09-09T17:28:49.715Z,16.58
2022-09-09T17:31:18.762Z,17.35
2022-09-09T17:33:53.990Z,16.20
2022-09-09T17:36:43.987Z,18.05
2022-09-09T17:39:10.738Z,18.10
2022-09-09T17:41:40.162Z,15.40
2022-09-09T17:46:42.850Z,18.55
2022-09-09T17:49:15.096Z,15.02
2022-09-09T17:51:43.291Z,15.85
2022-09-09T17:54:13.952Z,18.27
2022-09-09T17:56:42.365Z,21.73
2022-09-09T17:59:10.749Z,20.08
2022-09-09T18:01:40.585Z,20.92
2022-09-09T18:04:09.883Z,17.83
2022-09-09T18:06:46.565Z,16.10
2022-09-09T18:09:16.508Z,15.43
2022-09-09T18:11:46.231Z,15.60
2022-09-09T18:14:17.874Z,15.07
2022-09-09T18:16:45.295Z,13.90
2022-09-09T18:19:14.396Z,16.90
2022-09-09T18:21:44.097Z,11.88
2022-09-09T18:24:12.786Z,15.50
2022-09-09T18:26:41.228Z,11.88
2022-09-09T18:29:12.946Z,11.52
2022-09-09T18:31:40.374Z,13.57
2022-09-09T18:34:10.031Z,12.10
2022-09-09T18:36:44.591Z,15.10
2022-09-09T18:39:13.213Z,14.35
2022-09-09T18:41:42.744Z,11.32
2022-09-09T18:44:16.944Z,13.50
2022-09-09T18:46:44.791Z,15.95
2022-09-09T18:49:11.688Z,11.23
2022-09-09T18:51:41.616Z,9.27
2022-09-09T18:54:13.170Z,11.85
2022-09-09T18:56:40.898Z,8.52
2022-09-09T18:59:10.584Z,8.45
2022-09-09T19:01:37.223Z,14.20
2022-09-09T19:04:06.566Z,11.65
2022-09-09T19:06:36.935Z,17.52
2022-09-09T19:09:05.129Z,45.33
2022-09-09T19:11:33.680Z,21.83
2022-09-09T19:14:03.424Z,12.38
2022-09-09T19:16:32.317Z,9.20
2022-09-09T19:19:06.822Z,11.48
2022-09-09T19:21:36.653Z,8.07
2022-09-09T19:24:11.671Z,6.95
2022-09-09T19:26:41.588Z,11.68
2022-09-09T19:29:10.194Z,9.68
2022-09-09T19:31:38.151Z,11.23
2022-09-09T19:34:05.100Z,9.02
2022-09-09T19:36:31.809Z,8.13
2022-09-09T19:39:00.209Z,12.10
2022-09-09T19:41:28.585Z,12.45
2022-09-09T19:44:01.851Z,11.63
2022-09-09T19:46:30.501Z,8.63
2022-09-09T19:48:59.880Z,5.95
2022-09-09T19:51:29.633Z,4.97
2022-09-09T19:54:03.103Z,6.13
2022-09-09T19:56:31.432Z,3.95
2022-09-09T19:58:58.053Z,4.57
2022-09-09T20:01:40.057Z,9.48
2022-09-09T20:04:08.301Z,7.70
2022-09-09T20:06:40.487Z,7.10
2022-09-09T20:09:10.604Z,4.80
2022-09-09T20:11:38.478Z,11.63
2022-09-09T20:14:05.745Z,6.60
2022-09-09T20:16:32.546Z,8.10
2022-09-09T20:19:02.746Z,6.75
2022-09-09T20:21:38.412Z,8.50
2022-09-09T20:24:07.746Z,8.57
2022-09-09T20:26:37.602Z,5.25
2022-09-09T20:29:07.891Z,5.57
2022-09-09T20:31:40.445Z,9.02
2022-09-09T20:34:10.114Z,8.50
2022-09-09T20:36:37.882Z,10.02
2022-09-09T20:39:10.879Z,8.30
2022-09-09T20:41:39.945Z,7.40
2022-09-09T20:44:16.219Z,8.43
2022-09-09T20:46:48.691Z,6.93
2022-09-09T20:49:17.674Z,4.88
2022-09-09T20:51:44.498Z,10.18
2022-09-09T20:54:14.069Z,7.38
2022-09-09T20:56:43.122Z,6.25
2022-09-09T20:59:13.367Z,5.70
2022-09-09T21:01:40.860Z,7.00
2022-09-09T21:04:09.516Z,12.25
2022-09-09T21:06:37.107Z,7.25
2022-09-09T21:09:03.964Z,6.78
2022-09-09T21:11:30.826Z,7.40
2022-09-09T21:13:58.424Z,7.07
2022-09-09T21:16:25.343Z,6.00
2022-09-09T21:18:52.294Z,7.57
2022-09-09T21:21:21.113Z,10.13
2022-09-09T21:23:49.211Z,6.25
2022-09-09T21:26:17.918Z,6.82
2022-09-09T21:28:44.593Z,8.48
2022-09-09T21:31:16.011Z,5.68
2022-09-09T21:33:43.108Z,4.00
2022-09-09T21:36:11.786Z,5.20
2022-09-09T21:38:40.355Z,7.03
2022-09-09T21:41:10.419Z,6.07
2022-09-09T21:43:37.034Z,4.60
2022-09-09T21:46:08.089Z,5.32
2022-09-09T21:48:35.399Z,6.45
2022-09-09T21:51:04.779Z,5.75
2022-09-09T21:53:32.379Z,6.72
2022-09-09T21:56:06.214Z,5.90
2022-09-09T21:58:34.147Z,5.63
2022-09-09T22:01:00.888Z,6.07
2022-09-09T22:03:27.884Z,5.32
2022-09-09T22:05:54.596Z,7.10
2022-09-09T22:08:21.331Z,5.78
2022-09-09T22:10:48.395Z,6.40
2022-09-09T22:13:17.039Z,5.90
2022-09-09T22:15:45.746Z,5.78
2022-09-09T22:18:14.141Z,7.78
2022-09-09T22:20:43.949Z,5.70
2022-09-09T22:23:11.923Z,7.07
2022-09-09T22:25:39.122Z,6.35
2022-09-09T22:28:07.486Z,6.85
2022-09-09T22:30:34.191Z,7.38
2022-09-09T22:33:01.335Z,5.88
2022-09-09T22:35:29.125Z,5.45
2022-09-09T22:37:56.143Z,5.07
2022-09-09T22:40:23.379Z,5.50
2022-09-09T22:42:52.957Z,6.65
2022-09-09T22:45:21.005Z,7.13
2022-09-09T22:47:48.016Z,6.88
2022-09-09T22:50:14.877Z,6.28
2022-09-09T22:52:41.498Z,8.52
2022-09-09T22:55:09.489Z,9.00
2022-09-09T22:57:36.642Z,7.30
2022-09-09T23:00:09.154Z,7.97
2022-09-09T23:02:40.806Z,7.45
2022-09-09T23:05:08.866Z,10.38
2022-09-09T23:07:37.011Z,9.27
2022-09-09T23:10:07.347Z,7.45
2022-09-09T23:12:34.398Z,9.07
2022-09-09T23:15:01.280Z,8.38
2022-09-09T23:17:28.008Z,7.65
2022-09-09T23:19:56.718Z,9.77
2022-09-09T23:22:24.478Z,13.80
2022-09-09T23:24:54.096Z,8.68
2022-09-09T23:27:24.391Z,8.50
2022-09-09T23:29:52.159Z,11.15
2022-09-09T23:32:18.935Z,11.95
2022-09-09T23:34:47.374Z,11.07
2022-09-09T23:37:14.455Z,12.45
2022-09-09T23:39:43.833Z,9.93
2022-09-09T23:42:11.859Z,15.32
2022-09-09T23:44:39.630Z,12.63
2022-09-09T23:47:07.907Z,10.25
2022-09-09T23:49:36.448Z,9.93
2022-09-09T23:52:05.394Z,12.98
2022-09-09T23:54:34.325Z,11.63
2022-09-09T23:57:03.146Z,8.15
2022-09-09T23:59:35.028Z,8.82
